Time;durP1;ratioP1;P1;durP2;ratioP2;P2;SDS_P1;SDS_P2;PMS_P1;PMS_P2;Temp;Humidity;BMP_temperature;BMP_pressure;BME280_temperature;BME280_humidity;BME280_pressure;Samples;Min_cycle;Max_cycle;Signal;HPM_P1;HPM_P2
2022/07/31 00:00:57;;;;;;;11.50;10.30;;;;;;;15.78;100.00;97265.34;108378;1287;22472;-88
2022/07/31 00:03:24;;;;;;;12.30;9.50;;;;;;;15.77;100.00;97266.56;108287;1288;22394;-89
2022/07/31 00:05:53;;;;;;;9.80;8.90;;;;;;;15.80;100.00;97265.77;108319;1288;22299;-89
2022/07/31 00:08:21;;;;;;;12.10;9.60;;;;;;;15.79;100.00;97259.30;108294;1288;22332;-88
2022/07/31 00:10:49;;;;;;;9.30;8.30;;;;;;;15.81;100.00;97263.94;108298;1288;23096;-89
2022/07/31 00:13:16;;;;;;;10.70;8.50;;;;;;;15.86;100.00;97261.12;108290;1288;22481;-86
2022/07/31 00:16:04;;;;;;;9.50;7.60;;;;;;;15.84;100.00;97266.12;108277;1288;22972;-86
2022/07/31 00:18:34;;;;;;;8.10;6.80;;;;;;;15.84;100.00;97260.77;108295;1287;22220;-87
2022/07/31 00:21:02;;;;;;;7.40;6.60;;;;;;;15.82;100.00;97263.02;108296;1287;23076;-87
2022/07/31 00:23:30;;;;;;;7.50;6.80;;;;;;;15.81;100.00;97258.65;108301;1288;22426;-88
2022/07/31 00:25:58;;;;;;;9.40;7.00;;;;;;;15.82;100.00;97267.23;108271;1288;22398;-88
2022/07/31 00:28:26;;;;;;;8.90;6.70;;;;;;;15.81;100.00;97263.63;108273;1287;22358;-88
2022/07/31 00:30:54;;;;;;;6.60;5.90;;;;;;;15.82;100.00;97262.27;108269;1287;23036;-87
2022/07/31 00:33:22;;;;;;;7.00;6.30;;;;;;;15.84;100.00;97261.60;108271;1287;23071;-85
2022/07/31 00:35:50;;;;;;;7.90;6.80;;;;;;;15.84;100.00;97261.59;108281;1288;22485;-88
2022/07/31 00:38:18;;;;;;;9.00;7.60;;;;;;;15.82;100.00;97261.26;108121;1288;22360;-87
2022/07/31 00:40:54;;;;;;;8.50;7.60;;;;;;;15.82;100.00;97262.87;108272;1288;22321;-86
2022/07/31 00:43:25;;;;;;;7.90;7.20;;;;;;;15.80;100.00;97261.98;108297;1288;22425;-87
2022/07/31 00:45:58;;;;;;;7.90;7.20;;;;;;;15.81;100.00;97256.72;108284;1288;22317;-87
2022/07/31 00:48:26;;;;;;;8.10;6.90;;;;;;;15.80;100.00;97247.92;108115;1288;22320;-86
2022/07/31 00:50:55;;;;;;;14.00;7.10;;;;;;;15.80;100.00;97247.69;108131;1288;22497;-87
2022/07/31 00:53:23;;;;;;;8.90;7.60;;;;;;;15.79;100.00;97249.77;108282;1288;22315;-87
2022/07/31 00:55:51;;;;;;;9.20;7.20;;;;;;;15.80;100.00;97251.41;108310;1287;23084;-87
2022/07/31 00:58:19;;;;;;;7.90;6.30;;;;;;;15.80;100.00;97249.55;108297;1288;22417;-87
2022/07/31 01:00:47;;;;;;;7.30;6.70;;;;;;;15.77;100.00;97250.41;108287;1288;22350;-86
2022/07/31 01:03:17;;;;;;;7.20;6.50;;;;;;;15.78;100.00;97247.55;108292;1288;23117;-88
2022/07/31 01:05:45;;;;;;;7.80;6.40;;;;;;;15.80;100.00;97249.02;108112;1288;22267;-87
2022/07/31 01:08:14;;;;;;;7.90;6.50;;;;;;;15.81;100.00;97249.98;108258;1288;22293;-87
2022/07/31 01:11:04;;;;;;;8.30;6.30;;;;;;;15.78;100.00;97252.75;108284;1288;22483;-87
2022/07/31 01:13:47;;;;;;;7.80;6.70;;;;;;;15.78;100.00;97248.66;108293;1288;22374;-87
2022/07/31 01:16:17;;;;;;;9.60;6.30;;;;;;;15.79;100.00;97245.71;108102;1288;22386;-87
2022/07/31 01:18:46;;;;;;;10.00;7.60;;;;;;;15.79;100.00;97243.95;108279;1288;22306;-87
2022/07/31 01:21:21;;;;;;;9.80;7.00;;;;;;;15.76;100.00;97242.45;108093;1287;22383;-85
2022/07/31 01:23:52;;;;;;;8.00;6.80;;;;;;;15.75;100.00;97239.10;108368;1286;22336;-87
2022/07/31 01:26:48;;;;;;;8.10;7.30;;;;;;;15.76;100.00;97238.48;108092;1288;22500;-87
2022/07/31 01:29:26;;;;;;;12.50;7.60;;;;;;;15.74;100.00;97237.91;108140;1288;22378;-86
2022/07/31 01:32:02;;;;;;;8.10;7.40;;;;;;;15.76;100.00;97238.42;108125;1288;22319;-87
2022/07/31 01:34:43;;;;;;;9.20;7.30;;;;;;;15.76;100.00;97234.30;108119;1288;22449;-87
2022/07/31 01:37:16;;;;;;;9.70;8.00;;;;;;;15.77;100.00;97236.13;108017;1288;23079;-88
2022/07/31 01:39:51;;;;;;;8.20;7.40;;;;;;;15.77;100.00;97232.80;108131;1288;22273;-88
2022/07/31 01:42:22;;;;;;;10.00;7.90;;;;;;;15.76;100.00;97230.91;108287;1288;22361;-89
2022/07/31 01:45:07;;;;;;;11.60;8.30;;;;;;;15.76;100.00;97230.11;108129;1288;22292;-88
2022/07/31 01:47:40;;;;;;;10.10;7.80;;;;;;;15.75;100.00;97227.22;108090;1290;22457;-88
2022/07/31 01:50:09;;;;;;;10.50;8.10;;;;;;;15.72;100.00;97228.69;108262;1288;22371;-88
2022/07/31 01:52:59;;;;;;;9.40;8.50;;;;;;;15.73;100.00;97229.02;108271;1288;22193;-88
2022/07/31 01:55:30;;;;;;;10.10;9.00;;;;;;;15.70;100.00;97226.71;108060;1288;260418;-88
2022/07/31 01:58:21;;;;;;;9.60;8.20;;;;;;;15.69;100.00;97222.19;108110;1288;23103;-87
2022/07/31 02:00:53;;;;;;;9.20;7.70;;;;;;;15.70;100.00;97220.86;108348;1288;22356;-88
2022/07/31 02:03:25;;;;;;;7.60;6.30;;;;;;;15.67;100.00;97220.30;108277;1288;22355;-88
2022/07/31 02:06:14;;;;;;;9.20;7.10;;;;;;;15.66;100.00;97221.09;108245;1288;22252;-88
2022/07/31 02:08:49;;;;;;;7.00;6.30;;;;;;;15.68;100.00;97218.34;108269;1288;22435;-89
2022/07/31 02:11:18;;;;;;;6.80;6.00;;;;;;;15.70;100.00;97209.33;108255;1288;22366;-88
2022/07/31 02:13:47;;;;;;;6.70;5.50;;;;;;;15.68;100.00;97211.75;108236;1288;22390;-87
2022/07/31 02:16:17;;;;;;;8.60;6.00;;;;;;;15.69;100.00;97209.13;108224;1289;22306;-88
2022/07/31 02:18:51;;;;;;;7.80;5.50;;;;;;;15.69;100.00;97208.20;108008;1290;22474;-88
2022/07/31 02:21:24;;;;;;;7.80;6.00;;;;;;;15.70;100.00;97203.33;108215;1289;22286;-89
2022/07/31 02:23:53;;;;;;;5.80;5.20;;;;;;;15.70;100.00;97201.02;108011;1289;22448;-88
2022/07/31 02:26:21;;;;;;;5.90;5.00;;;;;;;15.68;100.00;97194.70;108205;1290;23068;-88
2022/07/31 02:28:50;;;;;;;7.20;5.00;;;;;;;15.71;100.00;97196.54;108056;1288;22298;-88
2022/07/31 02:31:20;;;;;;;5.20;4.70;;;;;;;15.73;100.00;97190.86;108241;1289;23120;-88
2022/07/31 02:33:51;;;;;;;6.90;5.40;;;;;;;15.72;100.00;97191.05;107915;1288;22309;-88
2022/07/31 02:36:21;;;;;;;6.00;5.40;;;;;;;15.72;100.00;97188.43;108255;1288;22250;-88
2022/07/31 02:38:51;;;;;;;5.50;4.80;;;;;;;15.72;100.00;97189.58;108048;1290;22425;-86
2022/07/31 02:41:21;;;;;;;5.60;4.50;;;;;;;15.73;100.00;97191.63;108040;1289;22256;-87
2022/07/31 02:43:49;;;;;;;5.50;4.80;;;;;;;15.73;100.00;97186.50;108041;1289;22320;-88
2022/07/31 02:46:22;;;;;;;3.90;3.50;;;;;;;15.73;100.00;97188.91;108039;1288;22523;-88
2022/07/31 02:48:50;;;;;;;3.40;2.90;;;;;;;15.70;100.00;97187.91;108224;1288;23058;-87
2022/07/31 02:52:00;;;;;;;2.60;2.40;;;;;;;15.67;100.00;97192.48;108210;1289;23068;-87
2022/07/31 02:54:49;;;;;;;3.90;2.30;;;;;;;15.63;100.00;97190.88;108266;1288;22353;-88
2022/07/31 02:57:17;;;;;;;2.10;1.90;;;;;;;15.62;100.00;97189.14;108239;1287;22322;-88
2022/07/31 02:59:45;;;;;;;2.40;1.80;;;;;;;15.64;100.00;97189.73;108267;1288;22882;-88
2022/07/31 03:02:14;;;;;;;1.60;1.50;;;;;;;15.60;100.00;97189.48;108243;1289;22898;-88
2022/07/31 03:04:43;;;;;;;1.80;1.40;;;;;;;15.54;100.00;97197.95;108280;1287;22202;-87
2022/07/31 03:07:11;;;;;;;1.60;1.40;;;;;;;15.52;100.00;97188.96;108276;1288;22467;-87
2022/07/31 03:09:39;;;;;;;1.90;1.70;;;;;;;15.44;100.00;97195.50;107892;1290;22286;-87
2022/07/31 03:12:42;;;;;;;2.00;1.70;;;;;;;15.35;100.00;97199.30;107817;1288;22520;-86
2022/07/31 03:15:16;;;;;;;4.50;1.80;;;;;;;15.31;100.00;97199.88;108058;1289;22559;-87
2022/07/31 03:17:45;;;;;;;4.40;1.90;;;;;;;15.27;100.00;97199.93;108283;1288;22395;-88
2022/07/31 03:20:17;;;;;;;2.90;2.00;;;;;;;15.27;100.00;97199.39;108223;1290;22375;-86
2022/07/31 03:22:45;;;;;;;2.70;2.00;;;;;;;15.26;100.00;97199.75;108225;1289;22365;-88
2022/07/31 03:25:15;;;;;;;2.00;1.80;;;;;;;15.27;100.00;97200.55;108287;1288;22508;-88
2022/07/31 03:27:49;;;;;;;2.00;1.70;;;;;;;15.27;100.00;97202.20;108260;1288;22385;-88
2022/07/31 03:30:24;;;;;;;4.40;1.90;;;;;;;15.26;100.00;97203.64;108191;1289;22301;-86
2022/07/31 03:32:55;;;;;;;2.90;1.90;;;;;;;15.27;100.00;97204.27;108224;1288;22390;-86
2022/07/31 03:35:24;;;;;;;3.60;2.20;;;;;;;15.25;100.00;97205.92;108066;1288;23009;-87
2022/07/31 03:37:53;;;;;;;6.10;2.40;;;;;;;15.26;100.00;97204.16;107672;1289;22352;-86
2022/07/31 03:40:21;;;;;;;3.70;2.40;;;;;;;15.23;100.00;97208.75;108128;1288;22259;-87
2022/07/31 03:42:50;;;;;;;2.20;2.00;;;;;;;15.19;100.00;97206.02;108255;1288;22426;-85
2022/07/31 03:45:20;;;;;;;6.10;2.50;;;;;;;15.13;100.00;97206.06;108222;1289;22571;-86
2022/07/31 03:47:48;;;;;;;7.20;2.70;;;;;;;15.09;100.00;97205.34;108284;1288;22261;-87
2022/07/31 03:50:17;;;;;;;3.30;2.40;;;;;;;15.05;100.00;97207.70;108268;1288;22425;-86
2022/07/31 03:52:46;;;;;;;5.30;3.10;;;;;;;15.01;100.00;97199.70;108251;1288;22234;-87
2022/07/31 03:55:15;;;;;;;3.70;2.20;;;;;;;15.02;100.00;97200.72;108221;1288;23156;-85
2022/07/31 03:57:44;;;;;;;4.00;2.50;;;;;;;15.03;100.00;97203.62;108264;1287;22506;-87
2022/07/31 04:00:15;;;;;;;4.30;2.20;;;;;;;15.05;100.00;97202.44;108220;1288;22448;-87
2022/07/31 04:02:45;;;;;;;2.80;2.10;;;;;;;15.02;100.00;97206.28;108212;1288;22419;-86
2022/07/31 04:05:32;;;;;;;2.70;2.30;;;;;;;15.03;100.00;97204.84;108091;1288;22516;-87
2022/07/31 04:08:00;;;;;;;3.50;2.10;;;;;;;15.02;100.00;97207.21;108280;1288;23022;-87
2022/07/31 04:10:29;;;;;;;4.10;2.10;;;;;;;15.05;100.00;97209.86;107908;1288;22373;-87
2022/07/31 04:12:57;;;;;;;5.20;2.10;;;;;;;15.06;100.00;97211.20;108069;1288;22457;-88
2022/07/31 04:15:25;;;;;;;2.10;1.90;;;;;;;15.04;100.00;97210.86;108201;1288;22186;-88
2022/07/31 04:17:54;;;;;;;1.90;1.80;;;;;;;15.02;100.00;97208.92;108230;1288;22406;-87
2022/07/31 04:20:28;;;;;;;2.00;1.80;;;;;;;15.02;100.00;97208.77;108230;1288;22472;-87
2022/07/31 04:22:56;;;;;;;4.60;1.80;;;;;;;15.02;100.00;97207.30;108274;1288;22243;-88
2022/07/31 04:25:44;;;;;;;3.30;1.90;;;;;;;15.05;100.00;97206.37;108299;1288;22429;-86
2022/07/31 04:28:30;;;;;;;1.60;1.50;;;;;;;15.03;100.00;97208.66;108217;1288;23187;-87
2022/07/31 04:31:38;;;;;;;2.90;1.60;;;;;;;15.02;100.00;97211.02;108065;1288;22450;-89
2022/07/31 04:35:13;;;;;;;3.60;1.60;;;;;;;14.99;100.00;97208.95;108277;1288;22313;-86
2022/07/31 04:38:41;;;;;;;2.10;1.40;;;;;;;14.96;100.00;97220.77;108253;1287;22477;-88
2022/07/31 04:41:50;;;;;;;1.90;1.40;;;;;;;14.92;100.00;97223.67;108273;1288;22320;-87
2022/07/31 04:44:21;;;;;;;1.30;1.20;;;;;;;14.86;100.00;97234.89;108083;1288;22485;-87
2022/07/31 04:46:57;;;;;;;1.70;1.40;;;;;;;14.83;100.00;97238.30;108071;1287;22444;-87
2022/07/31 04:49:26;;;;;;;1.30;1.20;;;;;;;14.85;100.00;97238.65;108224;1288;22364;-87
2022/07/31 04:51:54;;;;;;;2.40;1.20;;;;;;;14.86;100.00;97236.75;108212;1288;22424;-87
2022/07/31 04:54:22;;;;;;;1.20;1.10;;;;;;;14.87;100.00;97239.44;108214;1287;22203;-87
2022/07/31 04:56:51;;;;;;;1.20;1.10;;;;;;;14.87;100.00;97241.30;108197;1288;22346;-87
2022/07/31 04:59:21;;;;;;;2.60;1.20;;;;;;;14.85;100.00;97240.60;108241;1288;22479;-87
2022/07/31 05:01:50;;;;;;;1.90;1.10;;;;;;;14.83;100.00;97244.73;108223;1288;23033;-85
2022/07/31 05:04:22;;;;;;;1.20;1.20;;;;;;;14.82;100.00;97243.39;108234;1288;22993;-87
2022/07/31 05:06:51;;;;;;;1.40;1.10;;;;;;;14.81;100.00;97250.39;108278;1288;22301;-86
2022/07/31 05:09:23;;;;;;;1.80;1.20;;;;;;;14.79;100.00;97248.96;108205;1288;23112;-87
2022/07/31 05:11:58;;;;;;;1.30;1.20;;;;;;;14.81;100.00;97255.27;108245;1288;23152;-88
2022/07/31 05:14:27;;;;;;;2.50;1.10;;;;;;;14.83;100.00;97258.98;108118;1288;22398;-88
2022/07/31 05:16:55;;;;;;;1.10;1.10;;;;;;;14.79;100.00;97260.52;107896;1288;22420;-88
2022/07/31 05:19:28;;;;;;;1.20;1.10;;;;;;;14.78;100.00;97262.02;108263;1288;22437;-87
2022/07/31 05:22:31;;;;;;;1.30;1.20;;;;;;;14.77;100.00;97263.85;108032;1288;22638;-87
2022/07/31 05:25:22;;;;;;;1.20;1.10;;;;;;;14.76;100.00;97264.75;108159;1288;22351;-86
2022/07/31 05:27:50;;;;;;;1.80;1.20;;;;;;;14.77;100.00;97269.13;108241;1288;22612;-86
2022/07/31 05:30:19;;;;;;;1.40;1.30;;;;;;;14.80;100.00;97272.85;108246;1288;22572;-86
2022/07/31 05:32:57;;;;;;;1.10;1.10;;;;;;;14.78;100.00;97272.71;108167;1288;22442;-86
2022/07/31 05:35:25;;;;;;;1.10;1.00;;;;;;;14.74;100.00;97276.48;108208;1288;23012;-87
2022/07/31 05:37:54;;;;;;;1.60;1.40;;;;;;;14.74;100.00;97279.40;108069;1288;23194;-86
2022/07/31 05:40:37;;;;;;;1.40;1.30;;;;;;;14.76;100.00;97281.70;108217;1288;22295;-88
2022/07/31 05:43:26;;;;;;;1.40;1.30;;;;;;;14.71;100.00;97281.59;108262;1288;22235;-87
2022/07/31 05:46:05;;;;;;;2.50;1.30;;;;;;;14.73;100.00;97284.20;108064;1288;22284;-85
2022/07/31 05:48:33;;;;;;;2.50;1.40;;;;;;;14.76;100.00;97285.05;108210;1288;22968;-87
2022/07/31 05:51:02;;;;;;;1.80;1.20;;;;;;;14.81;100.00;97281.18;108055;1288;22411;-86
2022/07/31 05:53:32;;;;;;;1.10;1.10;;;;;;;14.86;100.00;97283.73;108271;1288;23037;-86
2022/07/31 05:56:35;;;;;;;1.30;1.20;;;;;;;14.83;100.00;97281.45;108250;1287;22367;-86
2022/07/31 05:59:03;;;;;;;1.20;1.10;;;;;;;14.82;100.00;97286.94;108041;1288;22365;-85
2022/07/31 06:01:31;;;;;;;1.20;1.10;;;;;;;14.84;100.00;97289.31;108239;1288;22414;-86
2022/07/31 06:04:03;;;;;;;1.80;1.50;;;;;;;14.81;100.00;97292.41;108271;1288;22247;-85
2022/07/31 06:06:37;;;;;;;1.50;1.40;;;;;;;14.82;100.00;97291.44;108257;1288;22302;-85
2022/07/31 06:09:05;;;;;;;2.00;1.40;;;;;;;14.80;100.00;97295.84;108170;1288;22666;-85
2022/07/31 06:11:38;;;;;;;1.50;1.40;;;;;;;14.79;100.00;97296.36;108249;1288;22456;-85
2022/07/31 06:14:07;;;;;;;1.90;1.20;;;;;;;14.79;100.00;97300.71;108237;1288;22495;-86
2022/07/31 06:17:05;;;;;;;3.40;1.10;;;;;;;14.75;100.00;97300.05;108035;1288;22631;-86
2022/07/31 06:19:34;;;;;;;2.20;1.40;;;;;;;14.71;100.00;97299.77;108180;1288;22927;-86
2022/07/31 06:22:02;;;;;;;1.40;1.30;;;;;;;14.71;100.00;97299.45;108181;1288;22279;-86
2022/07/31 06:24:31;;;;;;;1.60;1.50;;;;;;;14.66;100.00;97297.66;108161;1288;23071;-85
2022/07/31 06:27:01;;;;;;;1.10;1.10;;;;;;;14.62;100.00;97300.80;108166;1288;22270;-85
2022/07/31 06:29:31;;;;;;;2.10;1.40;;;;;;;14.60;100.00;97303.75;108049;1288;22383;-84
2022/07/31 06:32:09;;;;;;;1.70;1.60;;;;;;;14.61;100.00;97308.80;108157;1288;22490;-85
2022/07/31 06:34:37;;;;;;;1.50;1.40;;;;;;;14.59;100.00;97310.48;108191;1288;22603;-86
2022/07/31 06:37:05;;;;;;;1.80;1.60;;;;;;;14.54;100.00;97314.75;108268;1288;22331;-86
2022/07/31 06:39:34;;;;;;;1.50;1.40;;;;;;;14.48;100.00;97314.96;108197;1288;22358;-86
2022/07/31 06:42:40;;;;;;;1.70;1.50;;;;;;;14.43;100.00;97318.06;108259;1288;22346;-85
2022/07/31 06:45:14;;;;;;;1.70;1.60;;;;;;;14.40;100.00;97318.97;108280;1288;22504;-87
2022/07/31 06:48:28;;;;;;;2.10;1.60;;;;;;;14.36;100.00;97321.70;108255;1288;22450;-86
2022/07/31 06:51:03;;;;;;;3.20;1.60;;;;;;;14.33;100.00;97321.40;108283;1288;22372;-85
2022/07/31 06:53:51;;;;;;;2.10;1.70;;;;;;;14.28;100.00;97326.80;108274;1288;22375;-85
2022/07/31 06:56:20;;;;;;;2.00;1.80;;;;;;;14.25;100.00;97322.66;108200;1288;22304;-85
2022/07/31 06:58:47;;;;;;;2.00;1.80;;;;;;;14.24;100.00;97326.83;108206;1288;23132;-86
2022/07/31 07:01:15;;;;;;;1.60;1.50;;;;;;;14.21;100.00;97325.61;108046;1288;22443;-86
2022/07/31 07:03:43;;;;;;;1.90;1.80;;;;;;;14.20;100.00;97327.13;108262;1288;22393;-86
2022/07/31 07:06:12;;;;;;;2.00;1.90;;;;;;;14.19;100.00;97326.41;108264;1287;23013;-87
2022/07/31 07:08:42;;;;;;;2.90;1.60;;;;;;;14.19;100.00;97331.77;107822;1288;22566;-86
2022/07/31 07:11:13;;;;;;;2.20;1.90;;;;;;;14.15;100.00;97328.84;108058;1288;22373;-87
2022/07/31 07:13:41;;;;;;;2.80;2.10;;;;;;;14.15;100.00;97329.69;108052;1288;23211;-86
2022/07/31 07:16:14;;;;;;;2.50;2.30;;;;;;;14.16;100.00;97330.94;108270;1286;22416;-85
2022/07/31 07:18:43;;;;;;;2.30;2.10;;;;;;;14.16;100.00;97326.75;108282;1287;22539;-86
2022/07/31 07:21:16;;;;;;;2.10;1.90;;;;;;;14.14;100.00;97324.13;108076;1288;22269;-86
2022/07/31 07:23:45;;;;;;;2.90;2.20;;;;;;;14.15;100.00;97332.05;108049;1288;22495;-84
2022/07/31 07:26:36;;;;;;;2.70;2.10;;;;;;;14.09;100.00;97334.92;108157;1288;22569;-86
2022/07/31 07:29:04;;;;;;;2.00;1.80;;;;;;;14.12;100.00;97330.89;108268;1287;22320;-86
2022/07/31 07:31:33;;;;;;;3.30;2.30;;;;;;;14.10;100.00;97336.56;108202;1288;22370;-86
2022/07/31 07:34:04;;;;;;;2.70;2.10;;;;;;;14.11;100.00;97342.32;108281;1288;22362;-87
2022/07/31 07:36:32;;;;;;;2.70;2.10;;;;;;;14.12;100.00;97339.48;108297;1288;23104;-86
2022/07/31 07:39:08;;;;;;;2.80;2.10;;;;;;;14.13;100.00;97337.19;108284;1287;22914;-86
2022/07/31 07:41:37;;;;;;;3.70;2.40;;;;;;;14.13;100.00;97343.52;108323;1287;22263;-86
2022/07/31 07:44:06;;;;;;;2.30;2.10;;;;;;;14.10;100.00;97346.87;108359;1288;22416;-85
2022/07/31 07:46:34;;;;;;;3.10;2.30;;;;;;;14.13;100.00;97344.25;108215;1288;23160;-86
2022/07/31 07:49:03;;;;;;;2.10;1.90;;;;;;;14.12;100.00;97353.25;108233;1288;22458;-87
2022/07/31 07:51:54;;;;;;;2.50;1.80;;;;;;;14.10;100.00;97350.83;108274;1288;22278;-87
2022/07/31 07:54:39;;;;;;;2.80;1.80;;;;;;;14.12;100.00;97348.91;108322;1287;22400;-87
2022/07/31 07:57:46;;;;;;;1.80;1.70;;;;;;;14.13;100.00;97354.61;107613;1288;22707;-85
2022/07/31 08:00:34;;;;;;;1.80;1.60;;;;;;;14.13;100.00;97352.98;108305;1287;22401;-87
2022/07/31 08:03:03;;;;;;;2.50;1.80;;;;;;;14.12;100.00;97352.20;108297;1287;22521;-86
2022/07/31 08:05:51;;;;;;;2.20;2.00;;;;;;;14.12;100.00;97356.66;108095;1288;22359;-86
2022/07/31 08:08:19;;;;;;;2.20;2.00;;;;;;;14.16;100.00;97354.40;108192;1288;22520;-87
2022/07/31 08:10:47;;;;;;;2.60;1.70;;;;;;;14.18;100.00;97350.38;108330;1287;22363;-85
2022/07/31 08:13:19;;;;;;;2.60;1.90;;;;;;;14.18;100.00;97357.18;108193;1288;22559;-85
2022/07/31 08:16:06;;;;;;;2.50;2.10;;;;;;;14.17;100.00;97360.63;108292;1287;23132;-86
2022/07/31 08:18:46;;;;;;;3.70;2.10;;;;;;;14.17;100.00;97362.13;108171;1288;22380;-86
2022/07/31 08:21:14;;;;;;;3.10;2.00;;;;;;;14.18;100.00;97366.64;108096;1288;22392;-85
2022/07/31 08:23:42;;;;;;;3.60;2.30;;;;;;;14.20;100.00;97369.03;108311;1287;22368;-85
2022/07/31 08:26:11;;;;;;;1.90;1.80;;;;;;;14.23;100.00;97372.61;108184;1288;22670;-86
2022/07/31 08:28:41;;;;;;;2.90;1.90;;;;;;;14.22;100.00;97370.95;108189;1288;22349;-85
2022/07/31 08:31:18;;;;;;;2.20;2.00;;;;;;;14.19;100.00;97375.11;108184;1288;22376;-86
2022/07/31 08:34:04;;;;;;;2.10;1.90;;;;;;;14.19;100.00;97373.64;108172;1288;22326;-86
2022/07/31 08:36:33;;;;;;;2.10;1.90;;;;;;;14.21;100.00;97376.20;108296;1288;22287;-86
2022/07/31 08:39:02;;;;;;;3.00;1.90;;;;;;;14.19;100.00;97380.83;108318;1286;22271;-86
2022/07/31 08:41:46;;;;;;;2.40;1.70;;;;;;;14.12;100.00;97382.91;108189;1286;22362;-85
2022/07/31 08:44:14;;;;;;;3.30;2.00;;;;;;;14.10;100.00;97391.36;108287;1286;22305;-86
2022/07/31 08:46:45;;;;;;;2.60;2.00;;;;;;;14.04;100.00;97381.95;108345;1287;22163;-86
2022/07/31 08:49:16;;;;;;;2.10;1.90;;;;;;;14.05;100.00;97382.29;108185;1288;22423;-86
2022/07/31 08:51:44;;;;;;;3.80;2.10;;;;;;;14.06;100.00;97381.86;108145;1288;22334;-86
2022/07/31 08:54:50;;;;;;;2.20;2.00;;;;;;;14.05;100.00;97381.91;108285;1287;23204;-85
2022/07/31 08:57:19;;;;;;;2.40;2.10;;;;;;;14.08;100.00;97382.09;108033;1288;22823;-86
2022/07/31 08:59:51;;;;;;;2.30;2.00;;;;;;;14.13;100.00;97382.31;108179;1288;22477;-85
2022/07/31 09:02:19;;;;;;;2.70;2.20;;;;;;;14.19;100.00;97385.18;108294;1287;23116;-86
2022/07/31 09:05:14;;;;;;;2.20;1.80;;;;;;;14.24;100.00;97382.64;108291;1288;22355;-85
2022/07/31 09:07:42;;;;;;;2.00;1.90;;;;;;;14.28;100.00;97388.11;108159;1288;22272;-85
2022/07/31 09:10:25;;;;;;;3.00;2.00;;;;;;;14.36;100.00;97396.04;108199;1287;22288;-86
2022/07/31 09:12:54;;;;;;;2.70;1.90;;;;;;;14.38;100.00;97383.33;108186;1288;22486;-87
2022/07/31 09:15:28;;;;;;;2.00;1.80;;;;;;;14.41;100.00;97392.41;108315;1287;22374;-86
2022/07/31 09:17:59;;;;;;;2.00;1.80;;;;;;;14.49;100.00;97390.38;108289;1286;22319;-86
2022/07/31 09:20:28;;;;;;;2.10;1.90;;;;;;;14.59;100.00;97390.81;108293;1287;22197;-86
2022/07/31 09:23:08;;;;;;;2.80;2.00;;;;;;;14.62;100.00;97390.98;108315;1288;22374;-86
2022/07/31 09:26:11;;;;;;;2.20;2.00;;;;;;;14.64;100.00;97391.04;107817;1287;22426;-86
2022/07/31 09:28:44;;;;;;;2.20;2.00;;;;;;;14.64;100.00;97395.69;107453;1293;22947;-85
2022/07/31 09:31:12;;;;;;;1.80;1.70;;;;;;;14.62;100.00;97400.91;107554;1294;22765;-85
2022/07/31 09:34:00;;;;;;;2.60;2.30;;;;;;;14.60;100.00;97398.95;107537;1293;22453;-85
2022/07/31 09:36:40;;;;;;;2.20;2.00;;;;;;;14.65;100.00;97398.27;107499;1293;22389;-85
2022/07/31 09:39:24;;;;;;;2.80;2.30;;;;;;;14.66;100.00;97395.45;107448;1293;22478;-86
2022/07/31 09:42:13;;;;;;;2.10;1.90;;;;;;;14.67;100.00;97395.47;107497;1293;22702;-85
2022/07/31 09:44:50;;;;;;;2.10;1.90;;;;;;;14.71;100.00;97401.66;107422;1294;22535;-86
2022/07/31 09:47:26;;;;;;;2.30;2.00;;;;;;;14.69;100.00;97403.30;107538;1293;22483;-86
2022/07/31 09:50:04;;;;;;;1.90;1.80;;;;;;;14.69;100.00;97403.54;107540;1293;23071;-85
2022/07/31 09:52:32;;;;;;;2.00;1.80;;;;;;;14.64;100.00;97404.69;107581;1293;22443;-86
2022/07/31 09:55:05;;;;;;;1.80;1.70;;;;;;;14.61;100.00;97411.38;107569;1293;23234;-85
2022/07/31 09:57:56;;;;;;;2.50;2.20;;;;;;;14.62;100.00;97411.27;107577;1293;22353;-85
2022/07/31 10:00:26;;;;;;;3.60;1.80;;;;;;;14.57;100.00;97410.89;107540;1292;22257;-86
2022/07/31 10:02:56;;;;;;;2.10;1.90;;;;;;;14.62;100.00;97409.63;107551;1293;23217;-85
2022/07/31 10:05:26;;;;;;;1.90;1.80;;;;;;;14.65;100.00;97410.73;107629;1290;23155;-85
2022/07/31 10:07:58;;;;;;;2.30;2.10;;;;;;;14.63;100.00;97412.86;108098;1288;23225;-86
2022/07/31 10:10:52;;;;;;;3.20;1.90;;;;;;;14.65;100.00;97416.57;108005;1288;22910;-85
2022/07/31 10:13:29;;;;;;;2.10;1.90;;;;;;;14.64;100.00;97413.59;108359;1288;22357;-86
2022/07/31 10:16:00;;;;;;;2.10;1.90;;;;;;;14.64;100.00;97420.09;108192;1288;23107;-86
2022/07/31 10:18:46;;;;;;;2.10;1.90;;;;;;;14.65;100.00;97422.00;108337;1287;22413;-86
2022/07/31 10:21:38;;;;;;;3.50;2.30;;;;;;;14.64;100.00;97424.05;108318;1287;22278;-85
2022/07/31 10:24:22;;;;;;;2.20;2.00;;;;;;;14.66;100.00;97422.39;108079;1288;22310;-85
2022/07/31 10:26:57;;;;;;;2.30;2.10;;;;;;;14.63;100.00;97429.52;108052;1288;22443;-85
2022/07/31 10:29:39;;;;;;;2.20;2.00;;;;;;;14.64;100.00;97431.70;108092;1288;22383;-85
2022/07/31 10:32:07;;;;;;;2.40;2.20;;;;;;;14.62;100.00;97428.56;108339;1286;22313;-85
2022/07/31 10:34:41;;;;;;;2.40;2.10;;;;;;;14.58;100.00;97430.98;108070;1287;23082;-86
2022/07/31 10:37:37;;;;;;;3.20;1.80;;;;;;;14.53;100.00;97429.73;108241;1288;22412;-86
2022/07/31 10:40:29;;;;;;;2.90;2.00;;;;;;;14.50;100.00;97432.95;108341;1287;22336;-86
2022/07/31 10:43:24;;;;;;;1.90;1.70;;;;;;;14.49;100.00;97434.13;108116;1287;22486;-85
2022/07/31 10:46:06;;;;;;;2.20;1.90;;;;;;;14.56;100.00;97437.64;108350;1288;22535;-86
2022/07/31 10:48:52;;;;;;;2.60;1.80;;;;;;;14.54;100.00;97440.92;108059;1288;22174;-86
2022/07/31 10:51:49;;;;;;;2.60;1.80;;;;;;;14.52;100.00;97444.92;108354;1287;22980;-86
2022/07/31 10:54:46;;;;;;;2.00;1.90;;;;;;;14.49;100.00;97449.21;108348;1288;23168;-85
2022/07/31 10:57:50;;;;;;;1.70;1.60;;;;;;;14.47;100.00;97447.65;107490;1288;22388;-85
2022/07/31 11:00:38;;;;;;;2.10;1.90;;;;;;;14.50;100.00;97452.79;108303;1287;22438;-86
2022/07/31 11:03:36;;;;;;;2.30;1.70;;;;;;;14.48;100.00;97452.33;108102;1288;22302;-86
2022/07/31 11:06:16;;;;;;;2.60;2.20;;;;;;;14.50;100.00;97450.84;108051;1288;23063;-85
2022/07/31 11:08:54;;;;;;;3.60;1.90;;;;;;;14.53;100.00;97458.94;108099;1287;22525;-84
2022/07/31 11:11:58;;;;;;;2.20;2.00;;;;;;;14.59;100.00;97457.11;107904;1288;22661;-85
2022/07/31 11:14:44;;;;;;;1.90;1.70;;;;;;;14.65;100.00;97461.30;108213;1287;22392;-85
2022/07/31 11:17:42;;;;;;;2.20;1.70;;;;;;;14.67;100.00;97461.94;107444;1287;22506;-84
2022/07/31 11:20:41;;;;;;;2.50;1.90;;;;;;;14.68;100.00;97463.16;108335;1287;22321;-85
2022/07/31 11:23:13;;;;;;;2.10;1.60;;;;;;;14.71;100.00;97465.05;108319;1287;22483;-84
2022/07/31 11:25:44;;;;;;;1.90;1.80;;;;;;;14.76;100.00;97462.04;108216;1287;22409;-85
2022/07/31 11:28:14;;;;;;;2.90;1.90;;;;;;;14.77;100.00;97458.27;108331;1287;22357;-84
2022/07/31 11:30:57;;;;;;;2.10;1.90;;;;;;;14.80;100.00;97462.00;108342;1288;22961;-84
2022/07/31 11:33:34;;;;;;;2.50;1.70;;;;;;;14.78;100.00;97465.43;108337;1287;22216;-85
2022/07/31 11:36:11;;;;;;;3.10;1.90;;;;;;;14.80;100.00;97470.77;108330;1286;23190;-85
2022/07/31 11:38:41;;;;;;;2.00;1.70;;;;;;;14.80;100.00;97465.95;108337;1287;22427;-84
2022/07/31 11:41:11;;;;;;;2.40;1.60;;;;;;;14.83;100.00;97465.52;108334;1288;22403;-83
2022/07/31 11:43:44;;;;;;;2.60;2.00;;;;;;;14.84;100.00;97467.40;108067;1287;23171;-84
2022/07/31 11:46:17;;;;;;;3.30;1.70;;;;;;;14.85;100.00;97467.35;108345;1287;22261;-84
2022/07/31 11:48:45;;;;;;;1.80;1.70;;;;;;;14.88;100.00;97463.84;108334;1287;22386;-85
2022/07/31 11:51:18;;;;;;;1.60;1.40;;;;;;;14.90;100.00;97464.34;108334;1288;22307;-84
2022/07/31 11:53:47;;;;;;;2.10;1.50;;;;;;;14.90;100.00;97462.64;108211;1288;22409;-85
2022/07/31 11:56:25;;;;;;;2.10;1.50;;;;;;;14.91;100.00;97458.20;108337;1288;22362;-85